»·PEaware :: N9273T KSBA-KSNA

N9273T :: KSBA-KSNA

FLIGHT INFORMATION

Flight Status: Arrived
Operator: Privately registered:
United States
More flights under this callsign
Pilot: Jim L. (28297)
Aircraft: CESSNA 210 CENTURION
(C210)
More flights by this aircraft type
Origin: KSBA Santa Barbara Mun
United States
Destination: KSNA John Wayne-Orange Co
United States
More flights between these airports :: More routes between these airports
Route: +KWANG CMA VNY V186 BAYJY V363 POXKU V8 SLI
File this flight plan on PilotEdge
Remarks: TEC route SBAP6 I have been having issues with weather updates where my machine hangs. Hopefully working now.
Altitude:
(Current/Filed)
5,000ft
Speed:
(Current/Filed)
140kts
Departed: 24-Jun-20 12:10 PM
Arrived: 24-Jun-20 01:07 PM
Distance/Time
Traveled:
108nm/0:57
Distance/Time
To Go:
Arrived

Flight Plot

Page will automatically refresh every two minutes.


Map Options




Map Legend


Flown Route
Filed Route
Departure Airport
Arrival Airport
Navaid (VOR, NDB)
Fix

Horizontal Profiles

Position Reports

Time Latitude Longitude Heading Altitude Ground
Speed
24-Jun-20 11:53 34.432569 -119.835087 71 17ft 0kts
24-Jun-20 11:54 34.432569 -119.835087 71 17ft 0kts
24-Jun-20 12:00 34.432569 -119.835087 71 17ft 0kts
24-Jun-20 12:01 34.432569 -119.835087 71 17ft 0kts
24-Jun-20 12:02 34.432569 -119.835087 71 17ft 0kts
24-Jun-20 12:03 34.432569 -119.835087 71 17ft 0kts
24-Jun-20 12:04 34.432569 -119.835087 71 17ft 0kts
24-Jun-20 12:05 34.432569 -119.835087 71 17ft 0kts
24-Jun-20 12:06 34.432564 -119.834981 123 17ft 3kts
24-Jun-20 12:07 34.431293 -119.837920 252 17ft 16kts
24-Jun-20 12:08 34.430753 -119.839629 243 17ft 0kts
24-Jun-20 12:09 34.419423 -119.836741 166 223ft 87kts
24-Jun-20 12:10 34.395610 -119.827906 160 1557ft 84kts
24-Jun-20 12:11 34.371848 -119.818283 161 2650ft 94kts
24-Jun-20 12:12 34.344515 -119.808235 162 3579ft 109kts
24-Jun-20 12:13 34.314550 -119.797178 162 4488ft 115kts
24-Jun-20 12:14 34.281900 -119.785156 162 5009ft 141kts
24-Jun-20 12:15 34.261059 -119.748728 90 5002ft 160kts
24-Jun-20 12:16 34.260950 -119.696962 91 4999ft 150kts
24-Jun-20 12:17 34.259720 -119.646595 92 4999ft 149kts
24-Jun-20 12:18 34.258381 -119.596398 92 4999ft 149kts
24-Jun-20 12:19 34.257019 -119.546178 92 4999ft 149kts
24-Jun-20 12:20 34.255625 -119.495927 92 4999ft 149kts
24-Jun-20 12:21 34.254224 -119.445787 92 5008ft 149kts
24-Jun-20 12:22 34.252797 -119.395578 92 5008ft 149kts
24-Jun-20 12:23 34.251338 -119.345348 93 5008ft 149kts
24-Jun-20 12:24 34.249892 -119.295733 92 5008ft 146kts
24-Jun-20 12:25 34.248480 -119.246562 92 5009ft 146kts
24-Jun-20 12:26 34.247027 -119.196880 92 5009ft 146kts
24-Jun-20 12:27 34.245570 -119.147473 92 5009ft 146kts
24-Jun-20 12:28 34.244027 -119.098088 92 5009ft 146kts
24-Jun-20 12:29 34.242479 -119.048793 92 5009ft 146kts
24-Jun-20 12:31 34.240897 -118.999456 92 5010ft 148kts
24-Jun-20 12:32 34.239291 -118.949045 92 5009ft 150kts
24-Jun-20 12:33 34.237646 -118.898098 92 4988ft 151kts
24-Jun-20 12:34 34.235961 -118.847292 92 4988ft 151kts
24-Jun-20 12:35 34.234284 -118.796413 92 4993ft 151kts
24-Jun-20 12:36 34.232561 -118.745775 92 5025ft 151kts
24-Jun-20 12:37 34.230829 -118.694925 92 5025ft 151kts
24-Jun-20 12:38 34.229088 -118.643977 92 5025ft 151kts
24-Jun-20 12:39 34.227276 -118.592909 92 5025ft 151kts
24-Jun-20 12:40 34.225461 -118.541364 92 5025ft 152kts
24-Jun-20 12:41 34.222983 -118.489906 103 5023ft 153kts
24-Jun-20 12:42 34.208458 -118.441310 109 5025ft 153kts
24-Jun-20 12:43 34.193811 -118.392870 110 5024ft 153kts
24-Jun-20 12:44 34.179084 -118.344389 110 5025ft 153kts
24-Jun-20 12:45 34.164315 -118.295791 110 5025ft 153kts
24-Jun-20 12:46 34.149537 -118.247271 110 5025ft 153kts
24-Jun-20 12:47 34.134706 -118.198601 110 5025ft 153kts
24-Jun-20 12:48 34.119785 -118.149962 110 5025ft 154kts
24-Jun-20 12:49 34.104861 -118.101405 110 5024ft 154kts
24-Jun-20 12:50 34.089930 -118.052769 110 5025ft 154kts
24-Jun-20 12:50 34.077541 -118.012433 110 5025ft 154kts
24-Jun-20 12:52 34.060060 -117.955649 110 5025ft 154kts
24-Jun-20 12:52 34.047592 -117.915137 110 5025ft 154kts
24-Jun-20 12:54 34.030129 -117.858542 110 5025ft 154kts
24-Jun-20 12:55 34.015121 -117.810068 110 5025ft 154kts
24-Jun-20 12:55 33.989642 -117.785352 181 4728ft 158kts
24-Jun-20 12:57 33.938697 -117.783465 166 4018ft 147kts
24-Jun-20 12:57 33.910521 -117.766612 152 4021ft 127kts
24-Jun-20 12:58 33.875097 -117.762475 181 3634ft 143kts
24-Jun-20 13:00 33.827518 -117.772909 205 2808ft 148kts
24-Jun-20 13:00 33.799520 -117.790147 208 2661ft 136kts
24-Jun-20 13:01 33.763750 -117.812911 208 1913ft 151kts
24-Jun-20 13:02 33.732741 -117.832628 208 1227ft 90kts
24-Jun-20 13:03 33.713363 -117.844901 208 791ft 75kts
24-Jun-20 13:04 33.695381 -117.856399 208 390ft 72kts
24-Jun-20 13:05 33.678833 -117.866819 213 60ft 47kts
24-Jun-20 13:06 33.675924 -117.869698 299 60ft 0kts
24-Jun-20 13:07 33.675947 -117.870818 13 60ft 0kts

Navigation Log

Ident Type
Flight plan parsing failed, navigation log unavailable